sensor_id;sensor_type;location;lat;lon;timestamp;temperature;humidity
43185;DHT22;28803;52.308;19.096;2024-01-27T00:00:47;4.10;99.90
43185;DHT22;28803;52.308;19.096;2024-01-27T00:03:34;4.10;99.90
43185;DHT22;28803;52.308;19.096;2024-01-27T00:06:02;4.10;99.90
43185;DHT22;28803;52.308;19.096;2024-01-27T00:08:29;4.20;1.00
43185;DHT22;28803;52.308;19.096;2024-01-27T00:10:57;4.30;99.90
43185;DHT22;28803;52.308;19.096;2024-01-27T00:13:24;4.30;99.90
43185;DHT22;28803;52.308;19.096;2024-01-27T00:15:51;4.30;99.90
43185;DHT22;28803;52.308;19.096;2024-01-27T00:18:21;4.30;99.90
43185;DHT22;28803;52.308;19.096;2024-01-27T00:20:49;4.30;99.90
43185;DHT22;28803;52.308;19.096;2024-01-27T00:23:16;4.30;99.90
43185;DHT22;28803;52.308;19.096;2024-01-27T00:25:43;4.30;99.90
43185;DHT22;28803;52.308;19.096;2024-01-27T00:28:10;4.30;99.90
43185;DHT22;28803;52.308;19.096;2024-01-27T00:30:38;4.30;99.90
43185;DHT22;28803;52.308;19.096;2024-01-27T00:33:05;4.30;99.90
43185;DHT22;28803;52.308;19.096;2024-01-27T00:35:33;4.30;99.90
43185;DHT22;28803;52.308;19.096;2024-01-27T00:38:00;4.30;99.90
43185;DHT22;28803;52.308;19.096;2024-01-27T00:40:27;4.30;99.90
43185;DHT22;28803;52.308;19.096;2024-01-27T00:42:54;4.20;99.90
43185;DHT22;28803;52.308;19.096;2024-01-27T00:45:22;4.20;99.90
43185;DHT22;28803;52.308;19.096;2024-01-27T00:47:50;4.20;99.90
43185;DHT22;28803;52.308;19.096;2024-01-27T00:50:18;4.20;99.90
43185;DHT22;28803;52.308;19.096;2024-01-27T00:52:45;4.20;99.90
43185;DHT22;28803;52.308;19.096;2024-01-27T00:55:12;4.20;99.90
43185;DHT22;28803;52.308;19.096;2024-01-27T00:57:39;4.20;99.90
43185;DHT22;28803;52.308;19.096;2024-01-27T01:00:08;4.20;99.90
43185;DHT22;28803;52.308;19.096;2024-01-27T01:02:37;4.10;99.90
43185;DHT22;28803;52.308;19.096;2024-01-27T01:05:05;4.10;99.90
43185;DHT22;28803;52.308;19.096;2024-01-27T01:07:32;4.10;99.90
43185;DHT22;28803;52.308;19.096;2024-01-27T01:09:59;4.10;99.90
43185;DHT22;28803;52.308;19.096;2024-01-27T01:12:26;4.10;99.90
43185;DHT22;28803;52.308;19.096;2024-01-27T01:14:54;4.10;99.90
43185;DHT22;28803;52.308;19.096;2024-01-27T01:17:22;4.00;99.90
43185;DHT22;28803;52.308;19.096;2024-01-27T01:19:49;4.00;99.90
43185;DHT22;28803;52.308;19.096;2024-01-27T01:22:16;4.00;99.90
43185;DHT22;28803;52.308;19.096;2024-01-27T01:33:35;4.00;99.90
43185;DHT22;28803;52.308;19.096;2024-01-27T01:36:03;4.00;99.90
43185;DHT22;28803;52.308;19.096;2024-01-27T01:38:30;4.00;99.90
43185;DHT22;28803;52.308;19.096;2024-01-27T01:40:57;4.00;99.90
43185;DHT22;28803;52.308;19.096;2024-01-27T01:43:24;4.10;99.90
43185;DHT22;28803;52.308;19.096;2024-01-27T01:45:52;4.00;99.90
43185;DHT22;28803;52.308;19.096;2024-01-27T01:48:23;4.10;99.90
43185;DHT22;28803;52.308;19.096;2024-01-27T01:50:50;4.00;99.90
43185;DHT22;28803;52.308;19.096;2024-01-27T01:53:18;4.00;99.90
43185;DHT22;28803;52.308;19.096;2024-01-27T01:55:45;4.00;99.90
43185;DHT22;28803;52.308;19.096;2024-01-27T01:58:13;4.00;99.90
43185;DHT22;28803;52.308;19.096;2024-01-27T02:00:40;4.00;99.90
43185;DHT22;28803;52.308;19.096;2024-01-27T02:03:13;3.90;99.90
43185;DHT22;28803;52.308;19.096;2024-01-27T02:05:40;4.00;99.90
43185;DHT22;28803;52.308;19.096;2024-01-27T02:08:08;3.90;99.90
43185;DHT22;28803;52.308;19.096;2024-01-27T02:10:35;3.90;99.90
43185;DHT22;28803;52.308;19.096;2024-01-27T02:13:16;3.90;99.90
43185;DHT22;28803;52.308;19.096;2024-01-27T02:15:47;3.90;99.90
43185;DHT22;28803;52.308;19.096;2024-01-27T02:18:15;3.90;99.90
43185;DHT22;28803;52.308;19.096;2024-01-27T02:20:43;3.90;99.90
43185;DHT22;28803;52.308;19.096;2024-01-27T02:23:10;4.00;99.90
43185;DHT22;28803;52.308;19.096;2024-01-27T02:25:37;4.00;99.90
43185;DHT22;28803;52.308;19.096;2024-01-27T02:28:05;4.00;99.90
43185;DHT22;28803;52.308;19.096;2024-01-27T02:30:32;4.00;99.90
43185;DHT22;28803;52.308;19.096;2024-01-27T02:33:00;4.00;99.90
43185;DHT22;28803;52.308;19.096;2024-01-27T02:35:27;4.00;99.90
43185;DHT22;28803;52.308;19.096;2024-01-27T02:37:54;4.00;99.90
43185;DHT22;28803;52.308;19.096;2024-01-27T02:40:24;4.00;99.90
43185;DHT22;28803;52.308;19.096;2024-01-27T02:42:52;4.00;99.90
43185;DHT22;28803;52.308;19.096;2024-01-27T02:45:22;4.00;99.90
43185;DHT22;28803;52.308;19.096;2024-01-27T02:47:49;4.00;99.90
43185;DHT22;28803;52.308;19.096;2024-01-27T02:50:18;4.00;99.90
43185;DHT22;28803;52.308;19.096;2024-01-27T02:52:46;4.00;99.90
43185;DHT22;28803;52.308;19.096;2024-01-27T02:55:13;3.90;99.90
43185;DHT22;28803;52.308;19.096;2024-01-27T02:57:41;3.90;99.90
43185;DHT22;28803;52.308;19.096;2024-01-27T03:00:08;3.90;99.90
43185;DHT22;28803;52.308;19.096;2024-01-27T03:02:36;3.90;99.90
43185;DHT22;28803;52.308;19.096;2024-01-27T03:05:03;3.90;99.90
43185;DHT22;28803;52.308;19.096;2024-01-27T03:07:31;3.90;99.90
43185;DHT22;28803;52.308;19.096;2024-01-27T03:09:58;3.80;99.90
43185;DHT22;28803;52.308;19.096;2024-01-27T03:12:26;3.80;99.90
43185;DHT22;28803;52.308;19.096;2024-01-27T03:14:53;3.80;99.90
43185;DHT22;28803;52.308;19.096;2024-01-27T03:17:22;3.80;99.90
43185;DHT22;28803;52.308;19.096;2024-01-27T03:19:49;3.80;99.90
43185;DHT22;28803;52.308;19.096;2024-01-27T03:22:16;3.80;99.90
43185;DHT22;28803;52.308;19.096;2024-01-27T03:24:44;3.70;99.90
43185;DHT22;28803;52.308;19.096;2024-01-27T03:27:11;3.70;99.90
43185;DHT22;28803;52.308;19.096;2024-01-27T03:29:39;3.80;99.90
43185;DHT22;28803;52.308;19.096;2024-01-27T03:32:06;3.80;99.90
43185;DHT22;28803;52.308;19.096;2024-01-27T03:34:33;3.80;99.90
43185;DHT22;28803;52.308;19.096;2024-01-27T03:37:01;3.80;99.90
43185;DHT22;28803;52.308;19.096;2024-01-27T03:39:28;3.80;99.90
43185;DHT22;28803;52.308;19.096;2024-01-27T03:41:55;3.80;99.90
43185;DHT22;28803;52.308;19.096;2024-01-27T03:44:22;3.70;99.90
43185;DHT22;28803;52.308;19.096;2024-01-27T03:46:50;3.70;99.90
43185;DHT22;28803;52.308;19.096;2024-01-27T03:49:18;3.80;99.90
43185;DHT22;28803;52.308;19.096;2024-01-27T03:51:45;3.70;99.90
43185;DHT22;28803;52.308;19.096;2024-01-27T03:54:12;3.80;99.90
43185;DHT22;28803;52.308;19.096;2024-01-27T03:56:41;3.80;99.90
43185;DHT22;28803;52.308;19.096;2024-01-27T03:59:08;3.80;99.90
43185;DHT22;28803;52.308;19.096;2024-01-27T04:01:38;3.80;99.90
43185;DHT22;28803;52.308;19.096;2024-01-27T04:04:05;3.90;99.90
43185;DHT22;28803;52.308;19.096;2024-01-27T04:06:37;3.90;99.90
43185;DHT22;28803;52.308;19.096;2024-01-27T04:09:06;3.90;99.90
43185;DHT22;28803;52.308;19.096;2024-01-27T04:11:37;3.80;99.90
43185;DHT22;28803;52.308;19.096;2024-01-27T04:14:04;3.90;99.90
43185;DHT22;28803;52.308;19.096;2024-01-27T04:16:32;3.90;99.90
43185;DHT22;28803;52.308;19.096;2024-01-27T04:18:59;3.90;99.90
43185;DHT22;28803;52.308;19.096;2024-01-27T04:21:27;3.90;99.90
43185;DHT22;28803;52.308;19.096;2024-01-27T04:23:54;3.90;99.90
43185;DHT22;28803;52.308;19.096;2024-01-27T04:26:22;3.90;99.90
43185;DHT22;28803;52.308;19.096;2024-01-27T04:28:49;3.80;99.90
43185;DHT22;28803;52.308;19.096;2024-01-27T04:31:17;3.80;99.90
43185;DHT22;28803;52.308;19.096;2024-01-27T04:33:44;3.70;99.90
43185;DHT22;28803;52.308;19.096;2024-01-27T04:36:12;3.80;99.90
43185;DHT22;28803;52.308;19.096;2024-01-27T04:38:39;3.80;99.90
43185;DHT22;28803;52.308;19.096;2024-01-27T04:41:07;3.80;99.90
43185;DHT22;28803;52.308;19.096;2024-01-27T04:43:34;3.70;99.90
43185;DHT22;28803;52.308;19.096;2024-01-27T04:46:01;3.80;99.90
43185;DHT22;28803;52.308;19.096;2024-01-27T04:48:28;3.80;99.90
43185;DHT22;28803;52.308;19.096;2024-01-27T04:50:56;3.90;99.90
43185;DHT22;28803;52.308;19.096;2024-01-27T04:53:23;3.80;99.90
43185;DHT22;28803;52.308;19.096;2024-01-27T04:55:51;3.80;99.90
43185;DHT22;28803;52.308;19.096;2024-01-27T04:58:18;3.80;99.90
43185;DHT22;28803;52.308;19.096;2024-01-27T05:00:45;3.80;99.90
43185;DHT22;28803;52.308;19.096;2024-01-27T05:03:12;3.80;99.90
43185;DHT22;28803;52.308;19.096;2024-01-27T05:05:51;3.80;99.90
43185;DHT22;28803;52.308;19.096;2024-01-27T05:08:18;3.80;99.90
43185;DHT22;28803;52.308;19.096;2024-01-27T05:10:46;3.80;99.90
43185;DHT22;28803;52.308;19.096;2024-01-27T05:13:13;3.80;99.90
43185;DHT22;28803;52.308;19.096;2024-01-27T05:15:41;3.80;99.90
43185;DHT22;28803;52.308;19.096;2024-01-27T05:18:08;3.70;99.90
43185;DHT22;28803;52.308;19.096;2024-01-27T05:20:37;3.70;99.90
43185;DHT22;28803;52.308;19.096;2024-01-27T05:23:04;3.60;99.90
43185;DHT22;28803;52.308;19.096;2024-01-27T05:25:31;3.60;99.90
43185;DHT22;28803;52.308;19.096;2024-01-27T05:27:59;3.60;99.90
43185;DHT22;28803;52.308;19.096;2024-01-27T05:30:26;3.60;99.90
43185;DHT22;28803;52.308;19.096;2024-01-27T05:32:53;3.60;99.90
43185;DHT22;28803;52.308;19.096;2024-01-27T05:35:21;3.60;99.90
43185;DHT22;28803;52.308;19.096;2024-01-27T05:37:48;3.60;99.90
43185;DHT22;28803;52.308;19.096;2024-01-27T05:40:15;3.60;99.90
43185;DHT22;28803;52.308;19.096;2024-01-27T05:42:43;3.50;99.90
43185;DHT22;28803;52.308;19.096;2024-01-27T05:45:12;3.50;99.90
43185;DHT22;28803;52.308;19.096;2024-01-27T05:47:39;3.50;99.90
43185;DHT22;28803;52.308;19.096;2024-01-27T05:50:07;3.50;99.90
43185;DHT22;28803;52.308;19.096;2024-01-27T05:52:35;3.40;99.90
43185;DHT22;28803;52.308;19.096;2024-01-27T05:55:03;3.40;99.90
43185;DHT22;28803;52.308;19.096;2024-01-27T05:57:33;3.30;99.90
43185;DHT22;28803;52.308;19.096;2024-01-27T06:00:01;3.30;99.90
43185;DHT22;28803;52.308;19.096;2024-01-27T06:02:28;3.20;99.90
43185;DHT22;28803;52.308;19.096;2024-01-27T06:04:55;3.10;99.90
43185;DHT22;28803;52.308;19.096;2024-01-27T06:07:22;3.10;99.90
43185;DHT22;28803;52.308;19.096;2024-01-27T06:09:50;3.10;99.90
43185;DHT22;28803;52.308;19.096;2024-01-27T06:12:17;3.00;99.90
43185;DHT22;28803;52.308;19.096;2024-01-27T06:14:45;3.00;99.90
43185;DHT22;28803;52.308;19.096;2024-01-27T06:17:13;2.90;99.90
43185;DHT22;28803;52.308;19.096;2024-01-27T06:19:42;2.90;99.90
43185;DHT22;28803;52.308;19.096;2024-01-27T06:22:09;2.90;99.90
43185;DHT22;28803;52.308;19.096;2024-01-27T06:24:43;2.90;99.90
43185;DHT22;28803;52.308;19.096;2024-01-27T06:27:11;2.80;99.90
43185;DHT22;28803;52.308;19.096;2024-01-27T06:29:39;2.80;99.90
43185;DHT22;28803;52.308;19.096;2024-01-27T06:32:07;2.90;99.90
43185;DHT22;28803;52.308;19.096;2024-01-27T06:34:39;2.80;99.90
43185;DHT22;28803;52.308;19.096;2024-01-27T06:37:06;2.80;99.90
43185;DHT22;28803;52.308;19.096;2024-01-27T06:39:34;2.80;99.90
43185;DHT22;28803;52.308;19.096;2024-01-27T06:42:01;2.70;99.90
43185;DHT22;28803;52.308;19.096;2024-01-27T06:44:28;2.70;99.90
43185;DHT22;28803;52.308;19.096;2024-01-27T06:46:56;2.70;99.90
43185;DHT22;28803;52.308;19.096;2024-01-27T06:49:23;2.70;99.90
43185;DHT22;28803;52.308;19.096;2024-01-27T06:51:51;2.70;99.90
43185;DHT22;28803;52.308;19.096;2024-01-27T06:54:19;2.70;99.90
43185;DHT22;28803;52.308;19.096;2024-01-27T06:56:46;2.60;99.90
43185;DHT22;28803;52.308;19.096;2024-01-27T06:59:14;2.60;1.00
43185;DHT22;28803;52.308;19.096;2024-01-27T07:01:50;2.60;1.00
43185;DHT22;28803;52.308;19.096;2024-01-27T07:04:18;2.70;1.00
43185;DHT22;28803;52.308;19.096;2024-01-27T07:06:45;2.60;1.00
43185;DHT22;28803;52.308;19.096;2024-01-27T07:09:13;2.60;1.00
43185;DHT22;28803;52.308;19.096;2024-01-27T07:11:40;2.50;1.00
43185;DHT22;28803;52.308;19.096;2024-01-27T07:14:09;2.50;1.00
43185;DHT22;28803;52.308;19.096;2024-01-27T07:16:36;2.50;1.00
43185;DHT22;28803;52.308;19.096;2024-01-27T07:19:04;2.50;1.00
43185;DHT22;28803;52.308;19.096;2024-01-27T07:21:31;2.50;1.00
43185;DHT22;28803;52.308;19.096;2024-01-27T07:23:59;2.50;1.00
43185;DHT22;28803;52.308;19.096;2024-01-27T07:26:26;2.50;1.00
43185;DHT22;28803;52.308;19.096;2024-01-27T07:28:54;2.40;1.00
43185;DHT22;28803;52.308;19.096;2024-01-27T07:31:21;2.50;1.00
43185;DHT22;28803;52.308;19.096;2024-01-27T07:33:50;2.50;1.00
43185;DHT22;28803;52.308;19.096;2024-01-27T07:36:18;2.50;1.00
43185;DHT22;28803;52.308;19.096;2024-01-27T07:38:46;2.50;1.00
43185;DHT22;28803;52.308;19.096;2024-01-27T07:41:13;2.50;1.00
43185;DHT22;28803;52.308;19.096;2024-01-27T07:43:40;2.50;1.00
43185;DHT22;28803;52.308;19.096;2024-01-27T07:46:08;2.50;1.00
43185;DHT22;28803;52.308;19.096;2024-01-27T07:48:36;2.40;1.00
43185;DHT22;28803;52.308;19.096;2024-01-27T07:51:04;2.40;1.00
43185;DHT22;28803;52.308;19.096;2024-01-27T07:53:31;2.50;1.00
43185;DHT22;28803;52.308;19.096;2024-01-27T07:55:58;2.50;1.00
43185;DHT22;28803;52.308;19.096;2024-01-27T07:58:26;2.50;1.00
43185;DHT22;28803;52.308;19.096;2024-01-27T08:00:54;2.40;1.00
43185;DHT22;28803;52.308;19.096;2024-01-27T08:03:21;2.50;1.00
43185;DHT22;28803;52.308;19.096;2024-01-27T08:05:49;2.50;1.00
43185;DHT22;28803;52.308;19.096;2024-01-27T08:08:17;2.50;1.00
43185;DHT22;28803;52.308;19.096;2024-01-27T08:10:44;2.50;1.00
43185;DHT22;28803;52.308;19.096;2024-01-27T08:13:12;2.50;4.00
43185;DHT22;28803;52.308;19.096;2024-01-27T08:15:39;2.50;4.10
43185;DHT22;28803;52.308;19.096;2024-01-27T08:18:07;2.60;10.50
43185;DHT22;28803;52.308;19.096;2024-01-27T08:20:35;2.60;16.30
43185;DHT22;28803;52.308;19.096;2024-01-27T08:23:03;2.60;10.90
43185;DHT22;28803;52.308;19.096;2024-01-27T08:25:33;2.60;10.20
43185;DHT22;28803;52.308;19.096;2024-01-27T08:28:01;2.60;11.20
43185;DHT22;28803;52.308;19.096;2024-01-27T08:30:29;2.60;19.80
43185;DHT22;28803;52.308;19.096;2024-01-27T08:32:57;2.60;20.20
43185;DHT22;28803;52.308;19.096;2024-01-27T08:35:25;2.70;21.50
43185;DHT22;28803;52.308;19.096;2024-01-27T08:37:53;2.70;25.40
43185;DHT22;28803;52.308;19.096;2024-01-27T08:40:20;2.70;15.60
43185;DHT22;28803;52.308;19.096;2024-01-27T08:42:47;2.70;15.50
43185;DHT22;28803;52.308;19.096;2024-01-27T08:45:14;2.70;18.40
43185;DHT22;28803;52.308;19.096;2024-01-27T08:47:45;2.70;15.80
43185;DHT22;28803;52.308;19.096;2024-01-27T08:50:13;2.70;22.50
43185;DHT22;28803;52.308;19.096;2024-01-27T08:52:41;2.80;27.40
43185;DHT22;28803;52.308;19.096;2024-01-27T08:55:08;2.90;19.90
43185;DHT22;28803;52.308;19.096;2024-01-27T08:57:37;2.90;18.10
43185;DHT22;28803;52.308;19.096;2024-01-27T09:00:05;2.90;18.30
43185;DHT22;28803;52.308;19.096;2024-01-27T09:02:33;3.00;20.10
43185;DHT22;28803;52.308;19.096;2024-01-27T09:05:01;2.90;16.70
43185;DHT22;28803;52.308;19.096;2024-01-27T09:07:31;3.00;15.20
43185;DHT22;28803;52.308;19.096;2024-01-27T09:09:58;2.90;12.70
43185;DHT22;28803;52.308;19.096;2024-01-27T09:12:26;2.90;6.60
43185;DHT22;28803;52.308;19.096;2024-01-27T09:14:55;2.90;5.20
43185;DHT22;28803;52.308;19.096;2024-01-27T09:17:24;2.90;8.00
43185;DHT22;28803;52.308;19.096;2024-01-27T09:19:51;2.90;3.30
43185;DHT22;28803;52.308;19.096;2024-01-27T09:22:19;2.80;1.00
43185;DHT22;28803;52.308;19.096;2024-01-27T09:24:46;2.80;1.00
43185;DHT22;28803;52.308;19.096;2024-01-27T09:27:14;2.80;1.00
43185;DHT22;28803;52.308;19.096;2024-01-27T09:29:41;2.80;9.00
43185;DHT22;28803;52.308;19.096;2024-01-27T09:32:09;2.80;7.20
43185;DHT22;28803;52.308;19.096;2024-01-27T09:34:36;2.90;13.90
43185;DHT22;28803;52.308;19.096;2024-01-27T09:37:04;2.90;5.00
43185;DHT22;28803;52.308;19.096;2024-01-27T09:39:32;2.90;11.30
43185;DHT22;28803;52.308;19.096;2024-01-27T09:42:04;2.90;13.70
43185;DHT22;28803;52.308;19.096;2024-01-27T09:44:35;2.90;5.80
43185;DHT22;28803;52.308;19.096;2024-01-27T09:47:03;3.00;10.00
43185;DHT22;28803;52.308;19.096;2024-01-27T09:49:31;3.00;1.90
43185;DHT22;28803;52.308;19.096;2024-01-27T09:51:59;3.00;1.00
43185;DHT22;28803;52.308;19.096;2024-01-27T09:54:27;2.90;1.00
43185;DHT22;28803;52.308;19.096;2024-01-27T09:56:55;2.90;1.00
43185;DHT22;28803;52.308;19.096;2024-01-27T09:59:23;2.90;1.00
43185;DHT22;28803;52.308;19.096;2024-01-27T10:01:52;2.90;1.00
43185;DHT22;28803;52.308;19.096;2024-01-27T10:04:22;2.90;1.00
43185;DHT22;28803;52.308;19.096;2024-01-27T10:06:50;2.80;1.00
43185;DHT22;28803;52.308;19.096;2024-01-27T10:09:18;2.80;1.00
43185;DHT22;28803;52.308;19.096;2024-01-27T10:11:47;2.80;1.00
43185;DHT22;28803;52.308;19.096;2024-01-27T10:14:15;2.90;2.50
43185;DHT22;28803;52.308;19.096;2024-01-27T10:16:45;2.90;10.30
43185;DHT22;28803;52.308;19.096;2024-01-27T10:19:16;2.90;16.40
43185;DHT22;28803;52.308;19.096;2024-01-27T10:22:00;2.90;1.00
43185;DHT22;28803;52.308;19.096;2024-01-27T10:24:29;3.00;1.00
43185;DHT22;28803;52.308;19.096;2024-01-27T10:27:02;3.00;1.00
43185;DHT22;28803;52.308;19.096;2024-01-27T10:29:31;3.00;1.00
43185;DHT22;28803;52.308;19.096;2024-01-27T10:32:09;3.00;1.00
43185;DHT22;28803;52.308;19.096;2024-01-27T10:34:37;3.00;1.00
43185;DHT22;28803;52.308;19.096;2024-01-27T10:37:06;3.00;1.00
43185;DHT22;28803;52.308;19.096;2024-01-27T10:39:34;3.00;1.00
43185;DHT22;28803;52.308;19.096;2024-01-27T10:42:03;3.00;1.00
43185;DHT22;28803;52.308;19.096;2024-01-27T10:44:32;3.00;1.00
43185;DHT22;28803;52.308;19.096;2024-01-27T10:47:02;3.00;1.00
43185;DHT22;28803;52.308;19.096;2024-01-27T10:49:34;3.10;1.00
43185;DHT22;28803;52.308;19.096;2024-01-27T10:52:09;3.10;1.00
43185;DHT22;28803;52.308;19.096;2024-01-27T10:54:39;3.10;1.00
43185;DHT22;28803;52.308;19.096;2024-01-27T10:57:08;3.10;1.00
43185;DHT22;28803;52.308;19.096;2024-01-27T10:59:37;3.10;1.00
43185;DHT22;28803;52.308;19.096;2024-01-27T11:02:12;3.00;1.00
43185;DHT22;28803;52.308;19.096;2024-01-27T11:04:42;3.00;1.00
43185;DHT22;28803;52.308;19.096;2024-01-27T11:07:11;3.10;1.00
43185;DHT22;28803;52.308;19.096;2024-01-27T11:09:39;3.00;1.00
43185;DHT22;28803;52.308;19.096;2024-01-27T11:12:11;3.00;1.00
43185;DHT22;28803;52.308;19.096;2024-01-27T11:14:38;3.00;1.00
43185;DHT22;28803;52.308;19.096;2024-01-27T11:17:09;3.00;1.00
43185;DHT22;28803;52.308;19.096;2024-01-27T11:19:40;3.10;1.00
43185;DHT22;28803;52.308;19.096;2024-01-27T11:22:17;3.10;1.00
43185;DHT22;28803;52.308;19.096;2024-01-27T11:24:52;3.20;1.00
43185;DHT22;28803;52.308;19.096;2024-01-27T11:27:27;3.10;1.00
43185;DHT22;28803;52.308;19.096;2024-01-27T11:29:56;3.10;1.00
43185;DHT22;28803;52.308;19.096;2024-01-27T11:32:26;3.10;1.00
43185;DHT22;28803;52.308;19.096;2024-01-27T11:34:54;3.10;1.00
43185;DHT22;28803;52.308;19.096;2024-01-27T11:37:22;3.20;1.00
43185;DHT22;28803;52.308;19.096;2024-01-27T11:40:04;3.10;1.00
43185;DHT22;28803;52.308;19.096;2024-01-27T11:42:33;3.10;1.00
43185;DHT22;28803;52.308;19.096;2024-01-27T11:45:01;3.00;1.00
43185;DHT22;28803;52.308;19.096;2024-01-27T11:47:29;3.00;1.00
43185;DHT22;28803;52.308;19.096;2024-01-27T11:49:57;3.00;1.00
43185;DHT22;28803;52.308;19.096;2024-01-27T11:52:28;3.00;1.00
43185;DHT22;28803;52.308;19.096;2024-01-27T11:54:56;3.10;1.00
43185;DHT22;28803;52.308;19.096;2024-01-27T11:57:24;3.10;1.00
43185;DHT22;28803;52.308;19.096;2024-01-27T11:59:53;3.10;1.00
43185;DHT22;28803;52.308;19.096;2024-01-27T12:02:21;3.00;1.00
43185;DHT22;28803;52.308;19.096;2024-01-27T12:04:49;3.00;1.00
43185;DHT22;28803;52.308;19.096;2024-01-27T12:07:17;3.00;1.00
43185;DHT22;28803;52.308;19.096;2024-01-27T12:09:49;3.00;1.00
43185;DHT22;28803;52.308;19.096;2024-01-27T12:12:20;3.00;1.00
43185;DHT22;28803;52.308;19.096;2024-01-27T12:14:49;3.00;1.00
43185;DHT22;28803;52.308;19.096;2024-01-27T12:17:18;3.00;1.00
43185;DHT22;28803;52.308;19.096;2024-01-27T12:19:50;3.00;1.00
43185;DHT22;28803;52.308;19.096;2024-01-27T12:25:11;3.00;1.00
43185;DHT22;28803;52.308;19.096;2024-01-27T12:27:40;3.00;1.00
43185;DHT22;28803;52.308;19.096;2024-01-27T12:30:09;2.90;1.00
43185;DHT22;28803;52.308;19.096;2024-01-27T12:32:37;2.90;1.00
43185;DHT22;28803;52.308;19.096;2024-01-27T12:35:06;2.90;1.00
43185;DHT22;28803;52.308;19.096;2024-01-27T12:37:35;2.90;1.00
43185;DHT22;28803;52.308;19.096;2024-01-27T12:40:03;2.90;1.00
43185;DHT22;28803;52.308;19.096;2024-01-27T12:42:48;2.90;1.00
43185;DHT22;28803;52.308;19.096;2024-01-27T12:45:15;2.80;1.00
43185;DHT22;28803;52.308;19.096;2024-01-27T12:47:43;2.80;1.00
43185;DHT22;28803;52.308;19.096;2024-01-27T12:50:11;2.80;1.00
43185;DHT22;28803;52.308;19.096;2024-01-27T12:52:38;2.80;1.00
43185;DHT22;28803;52.308;19.096;2024-01-27T12:55:06;2.80;1.00
43185;DHT22;28803;52.308;19.096;2024-01-27T12:57:34;2.80;1.00
43185;DHT22;28803;52.308;19.096;2024-01-27T13:00:02;2.70;1.00
43185;DHT22;28803;52.308;19.096;2024-01-27T13:02:37;2.70;1.00
43185;DHT22;28803;52.308;19.096;2024-01-27T13:05:05;2.70;1.00
43185;DHT22;28803;52.308;19.096;2024-01-27T13:07:33;2.70;1.00
43185;DHT22;28803;52.308;19.096;2024-01-27T13:10:02;2.70;1.00
43185;DHT22;28803;52.308;19.096;2024-01-27T13:12:31;2.70;2.40
43185;DHT22;28803;52.308;19.096;2024-01-27T13:14:58;2.70;3.20
43185;DHT22;28803;52.308;19.096;2024-01-27T13:17:25;2.70;6.50
43185;DHT22;28803;52.308;19.096;2024-01-27T13:19:53;2.70;9.70
43185;DHT22;28803;52.308;19.096;2024-01-27T13:22:21;2.70;13.00
43185;DHT22;28803;52.308;19.096;2024-01-27T13:24:51;2.70;17.70
43185;DHT22;28803;52.308;19.096;2024-01-27T13:27:19;2.70;20.70
43185;DHT22;28803;52.308;19.096;2024-01-27T13:29:47;2.70;23.10
43185;DHT22;28803;52.308;19.096;2024-01-27T13:32:15;2.70;26.00
43185;DHT22;28803;52.308;19.096;2024-01-27T13:34:42;2.70;28.10
43185;DHT22;28803;52.308;19.096;2024-01-27T13:37:10;2.70;31.20
43185;DHT22;28803;52.308;19.096;2024-01-27T13:39:38;2.70;35.20
43185;DHT22;28803;52.308;19.096;2024-01-27T13:42:05;2.70;39.70
43185;DHT22;28803;52.308;19.096;2024-01-27T13:44:34;2.80;44.50
43185;DHT22;28803;52.308;19.096;2024-01-27T13:47:03;2.80;49.00
43185;DHT22;28803;52.308;19.096;2024-01-27T13:49:32;2.90;52.80
43185;DHT22;28803;52.308;19.096;2024-01-27T13:52:00;2.90;56.20
43185;DHT22;28803;52.308;19.096;2024-01-27T13:54:32;2.90;59.80
43185;DHT22;28803;52.308;19.096;2024-01-27T13:57:02;2.90;63.60
43185;DHT22;28803;52.308;19.096;2024-01-27T13:59:31;3.00;65.10
43185;DHT22;28803;52.308;19.096;2024-01-27T14:02:00;3.00;66.10
43185;DHT22;28803;52.308;19.096;2024-01-27T14:04:27;3.00;66.60
43185;DHT22;28803;52.308;19.096;2024-01-27T14:06:55;3.00;66.90
43185;DHT22;28803;52.308;19.096;2024-01-27T14:09:25;3.00;66.80
43185;DHT22;28803;52.308;19.096;2024-01-27T14:11:54;3.10;65.20
43185;DHT22;28803;52.308;19.096;2024-01-27T14:14:22;3.10;65.10
43185;DHT22;28803;52.308;19.096;2024-01-27T14:16:49;3.10;64.40
43185;DHT22;28803;52.308;19.096;2024-01-27T14:19:17;3.10;62.90
43185;DHT22;28803;52.308;19.096;2024-01-27T14:21:45;3.10;60.50
43185;DHT22;28803;52.308;19.096;2024-01-27T14:24:12;3.10;59.50
43185;DHT22;28803;52.308;19.096;2024-01-27T14:26:40;3.20;58.60
43185;DHT22;28803;52.308;19.096;2024-01-27T14:29:08;3.20;57.00
43185;DHT22;28803;52.308;19.096;2024-01-27T14:31:35;3.20;55.70
43185;DHT22;28803;52.308;19.096;2024-01-27T14:34:03;3.20;56.80
43185;DHT22;28803;52.308;19.096;2024-01-27T14:36:31;3.30;55.50
43185;DHT22;28803;52.308;19.096;2024-01-27T14:38:59;3.30;53.50
43185;DHT22;28803;52.308;19.096;2024-01-27T14:41:27;3.30;49.10
43185;DHT22;28803;52.308;19.096;2024-01-27T14:43:55;3.30;39.80
43185;DHT22;28803;52.308;19.096;2024-01-27T14:46:23;3.40;32.50
43185;DHT22;28803;52.308;19.096;2024-01-27T14:48:51;3.40;27.20
43185;DHT22;28803;52.308;19.096;2024-01-27T14:51:19;3.30;20.20
43185;DHT22;28803;52.308;19.096;2024-01-27T14:53:46;3.40;11.80
43185;DHT22;28803;52.308;19.096;2024-01-27T14:56:14;3.40;6.50
43185;DHT22;28803;52.308;19.096;2024-01-27T14:58:42;3.30;1.70
43185;DHT22;28803;52.308;19.096;2024-01-27T15:01:10;3.40;1.00
43185;DHT22;28803;52.308;19.096;2024-01-27T15:03:37;3.30;1.00
43185;DHT22;28803;52.308;19.096;2024-01-27T15:06:05;3.30;1.00
43185;DHT22;28803;52.308;19.096;2024-01-27T15:08:33;3.40;1.00
43185;DHT22;28803;52.308;19.096;2024-01-27T15:11:01;3.30;1.00
43185;DHT22;28803;52.308;19.096;2024-01-27T15:13:29;3.20;1.00
43185;DHT22;28803;52.308;19.096;2024-01-27T15:15:58;3.10;1.00
43185;DHT22;28803;52.308;19.096;2024-01-27T15:18:27;3.00;1.00
43185;DHT22;28803;52.308;19.096;2024-01-27T15:20:55;2.90;1.00
43185;DHT22;28803;52.308;19.096;2024-01-27T15:23:22;2.90;1.00
43185;DHT22;28803;52.308;19.096;2024-01-27T15:25:53;2.80;1.00
43185;DHT22;28803;52.308;19.096;2024-01-27T15:28:20;2.80;1.00
43185;DHT22;28803;52.308;19.096;2024-01-27T15:30:47;2.80;1.00
43185;DHT22;28803;52.308;19.096;2024-01-27T15:33:16;2.70;1.00
43185;DHT22;28803;52.308;19.096;2024-01-27T15:35:44;2.70;1.00
43185;DHT22;28803;52.308;19.096;2024-01-27T15:38:11;2.60;1.00
43185;DHT22;28803;52.308;19.096;2024-01-27T15:40:38;2.60;1.00
43185;DHT22;28803;52.308;19.096;2024-01-27T15:43:06;2.60;1.00
43185;DHT22;28803;52.308;19.096;2024-01-27T15:45:33;2.50;1.00
43185;DHT22;28803;52.308;19.096;2024-01-27T15:48:00;2.40;1.00
43185;DHT22;28803;52.308;19.096;2024-01-27T15:50:28;2.40;1.00
43185;DHT22;28803;52.308;19.096;2024-01-27T15:52:57;2.30;1.00
43185;DHT22;28803;52.308;19.096;2024-01-27T15:55:27;2.30;1.00